EYSA/SQQ METAR and TAF weather

Enter ICAO airport designator
Station Type Date Time Source
EYSA METAR 2022/06/28 09:50 UTC NOAA

EYSA 280950Z 13009KT 090V160 CAVOK 29/19 Q1019 NOSIG


Station Type Date Time Source
EYSA Decoded METAR 2022/06/28 09:50 UTC NOAA

Siauliai Intl./Mil., Lithuania (EYSA) 55-53-38N 023-23-42E
Jun 28, 2022 - 05:50 AM EDT / 2022.06.28 0950 UTC
Wind: from the SE (130 degrees) at 10 MPH (9 KT) (direction variable):0
Visibility: greater than 7 mile(s):0
Temperature: 84 F (29 C)
Dew Point: 66 F (19 C)
Relative Humidity: 54%
Pressure (altimeter): 30.09 in. Hg (1019 hPa)
ob: EYSA 280950Z 13009KT 090V160 CAVOK 29/19 Q1019 NOSIG
cycle: 10

Station Type Date Time Source
EYSA TAF 2022/06/22 09:09 UTC NOAA

TAF TAF EYSA 220806Z 2209/2221 VRB05KT 9000 NSC

Example: see airport list